Terminal Aerodrome Forecast
Issued by NWS Louisville, KY

Home | Current Version | Previous Version | Text Only | Print | Product List | Glossary On
Versions: 1 2 3 4 5 6 7 8 9 10 11 12 13 14 15 16 17
000
FTUS43 KLMK 271700
TAFSDF
TAF
KSDF 271720Z 2718/2824 21014G25KT P6SM SCT040 SCT250
     FM280000 18009KT P6SM BKN250
     FM280600 19009KT P6SM BKN250 WS017/21039KT
     FM281300 22013KT P6SM BKN040
     FM281600 22012KT P6SM SHRA BKN035=

USA.gov is the U.S. government's official web portal to all federal, state and local government web resources and services.